sensor_id;sensor_type;location;lat;lon;timestamp;pressure;altitude;pressure_sealevel;temperature;humidity
47374;BME280;33123;50.118;10.272;2023-02-11T00:00:51;99532.97;;;1.96;66.55
47374;BME280;33123;50.118;10.272;2023-02-11T00:03:18;99530.88;;;1.99;66.98
47374;BME280;33123;50.118;10.272;2023-02-11T00:05:44;99530.59;;;2.02;67.05
47374;BME280;33123;50.118;10.272;2023-02-11T00:08:11;99527.69;;;2.05;66.67
47374;BME280;33123;50.118;10.272;2023-02-11T00:10:42;99527.41;;;2.08;66.55
47374;BME280;33123;50.118;10.272;2023-02-11T00:13:10;99523.56;;;2.13;66.99
47374;BME280;33123;50.118;10.272;2023-02-11T00:15:37;99521.59;;;2.15;66.73
47374;BME280;33123;50.118;10.272;2023-02-11T00:18:03;99527.50;;;2.17;67.25
47374;BME280;33123;50.118;10.272;2023-02-11T00:20:30;99530.91;;;2.17;66.62
47374;BME280;33123;50.118;10.272;2023-02-11T00:22:57;99529.78;;;2.20;67.20
47374;BME280;33123;50.118;10.272;2023-02-11T00:25:23;99521.03;;;2.21;67.00
47374;BME280;33123;50.118;10.272;2023-02-11T00:27:51;99510.41;;;2.14;67.08
47374;BME280;33123;50.118;10.272;2023-02-11T00:30:18;99492.56;;;2.01;67.40
47374;BME280;33123;50.118;10.272;2023-02-11T00:32:45;99484.28;;;1.88;67.64
47374;BME280;33123;50.118;10.272;2023-02-11T00:35:11;99486.66;;;1.99;67.52
47374;BME280;33123;50.118;10.272;2023-02-11T00:37:38;99482.81;;;2.03;66.98
47374;BME280;33123;50.118;10.272;2023-02-11T00:40:05;99485.13;;;2.06;67.29
47374;BME280;33123;50.118;10.272;2023-02-11T00:42:32;99484.81;;;2.09;67.33
47374;BME280;33123;50.118;10.272;2023-02-11T00:45:01;99493.97;;;2.14;67.35
47374;BME280;33123;50.118;10.272;2023-02-11T00:47:28;99484.22;;;2.16;67.39
47374;BME280;33123;50.118;10.272;2023-02-11T00:49:54;99496.78;;;2.20;67.07
47374;BME280;33123;50.118;10.272;2023-02-11T00:52:21;99502.53;;;2.24;67.75
47374;BME280;33123;50.118;10.272;2023-02-11T00:54:47;99503.19;;;2.26;67.35
47374;BME280;33123;50.118;10.272;2023-02-11T00:57:14;99503.56;;;2.31;67.21
47374;BME280;33123;50.118;10.272;2023-02-11T00:59:41;99497.09;;;2.35;67.16
47374;BME280;33123;50.118;10.272;2023-02-11T01:02:09;99507.19;;;2.38;66.71
47374;BME280;33123;50.118;10.272;2023-02-11T01:04:35;99512.94;;;2.42;66.65
47374;BME280;33123;50.118;10.272;2023-02-11T01:07:02;99519.78;;;2.43;66.94
47374;BME280;33123;50.118;10.272;2023-02-11T01:09:28;99504.69;;;2.46;66.77
47374;BME280;33123;50.118;10.272;2023-02-11T01:11:55;99494.94;;;2.48;66.78
47374;BME280;33123;50.118;10.272;2023-02-11T01:14:22;99497.25;;;2.51;67.02
47374;BME280;33123;50.118;10.272;2023-02-11T01:16:48;99477.09;;;2.53;66.94
47374;BME280;33123;50.118;10.272;2023-02-11T01:19:16;99489.81;;;2.56;66.94
47374;BME280;33123;50.118;10.272;2023-02-11T01:21:43;99475.81;;;2.57;66.42
47374;BME280;33123;50.118;10.272;2023-02-11T01:24:09;99450.41;;;2.51;66.78
47374;BME280;33123;50.118;10.272;2023-02-11T01:26:36;99462.66;;;2.59;66.17
47374;BME280;33123;50.118;10.272;2023-02-11T01:29:03;99473.59;;;2.62;66.80
47374;BME280;33123;50.118;10.272;2023-02-11T01:31:29;99461.38;;;2.63;66.14
47374;BME280;33123;50.118;10.272;2023-02-11T01:33:56;99460.41;;;2.64;66.47
47374;BME280;33123;50.118;10.272;2023-02-11T01:36:24;99451.50;;;2.67;66.10
47374;BME280;33123;50.118;10.272;2023-02-11T01:38:50;99448.91;;;2.67;65.97
47374;BME280;33123;50.118;10.272;2023-02-11T01:41:17;99446.44;;;2.65;66.13
47374;BME280;33123;50.118;10.272;2023-02-11T01:43:46;99415.88;;;2.49;65.80
47374;BME280;33123;50.118;10.272;2023-02-11T01:46:29;99441.66;;;2.60;65.59
47374;BME280;33123;50.118;10.272;2023-02-11T01:48:58;99451.06;;;2.53;65.78
47374;BME280;33123;50.118;10.272;2023-02-11T01:51:30;99443.91;;;2.55;66.09
47374;BME280;33123;50.118;10.272;2023-02-11T01:53:59;99432.09;;;2.43;66.57
47374;BME280;33123;50.118;10.272;2023-02-11T01:56:47;99429.88;;;2.48;66.70
47374;BME280;33123;50.118;10.272;2023-02-11T01:59:37;99421.78;;;2.51;66.86
47374;BME280;33123;50.118;10.272;2023-02-11T02:02:09;99426.91;;;2.43;66.83
47374;BME280;33123;50.118;10.272;2023-02-11T02:04:40;99418.81;;;2.46;66.47
47374;BME280;33123;50.118;10.272;2023-02-11T02:07:23;99421.81;;;2.33;67.16
47374;BME280;33123;50.118;10.272;2023-02-11T02:09:58;99400.75;;;2.27;66.94
47374;BME280;33123;50.118;10.272;2023-02-11T02:12:25;99389.66;;;2.17;67.82
47374;BME280;33123;50.118;10.272;2023-02-11T02:15:10;99353.00;;;2.10;67.31
47374;BME280;33123;50.118;10.272;2023-02-11T02:17:47;99372.09;;;2.19;67.72
47374;BME280;33123;50.118;10.272;2023-02-11T02:20:38;99379.66;;;2.30;68.16
47374;BME280;33123;50.118;10.272;2023-02-11T02:23:19;99378.88;;;2.37;68.26
47374;BME280;33123;50.118;10.272;2023-02-11T02:26:10;99373.25;;;2.42;67.95
47374;BME280;33123;50.118;10.272;2023-02-11T02:29:05;99379.22;;;2.34;68.60
47374;BME280;33123;50.118;10.272;2023-02-11T02:31:50;99388.84;;;2.42;68.27
47374;BME280;33123;50.118;10.272;2023-02-11T02:34:27;99375.38;;;2.47;67.78
47374;BME280;33123;50.118;10.272;2023-02-11T02:37:00;99382.47;;;2.62;68.08
47374;BME280;33123;50.118;10.272;2023-02-11T02:39:32;99384.88;;;2.56;67.55
47374;BME280;33123;50.118;10.272;2023-02-11T02:42:00;99387.25;;;2.67;67.20
47374;BME280;33123;50.118;10.272;2023-02-11T02:44:28;99391.31;;;2.70;66.71
47374;BME280;33123;50.118;10.272;2023-02-11T02:46:55;99395.72;;;2.77;66.61
47374;BME280;33123;50.118;10.272;2023-02-11T02:49:23;99399.47;;;2.75;67.07
47374;BME280;33123;50.118;10.272;2023-02-11T02:52:03;99396.16;;;2.90;66.43
47374;BME280;33123;50.118;10.272;2023-02-11T02:57:46;99385.56;;;2.92;66.10
47374;BME280;33123;50.118;10.272;2023-02-11T03:00:24;99373.00;;;2.87;65.98
47374;BME280;33123;50.118;10.272;2023-02-11T03:03:16;99385.13;;;3.05;65.89
47374;BME280;33123;50.118;10.272;2023-02-11T03:05:49;99362.78;;;2.94;65.55
47374;BME280;33123;50.118;10.272;2023-02-11T03:08:24;99383.03;;;3.00;65.89
47374;BME280;33123;50.118;10.272;2023-02-11T03:10:53;99370.66;;;3.02;65.95
47374;BME280;33123;50.118;10.272;2023-02-11T03:13:26;99371.97;;;3.06;66.09
47374;BME280;33123;50.118;10.272;2023-02-11T03:16:01;99376.22;;;3.07;66.14
47374;BME280;33123;50.118;10.272;2023-02-11T03:18:32;99382.06;;;3.09;65.81
47374;BME280;33123;50.118;10.272;2023-02-11T03:21:02;99381.41;;;3.07;66.10
47374;BME280;33123;50.118;10.272;2023-02-11T03:23:35;99377.47;;;3.03;66.35
47374;BME280;33123;50.118;10.272;2023-02-11T03:26:08;99379.03;;;2.88;66.65
47374;BME280;33123;50.118;10.272;2023-02-11T03:28:40;99374.53;;;2.98;66.48
47374;BME280;33123;50.118;10.272;2023-02-11T03:31:11;99369.16;;;3.00;66.13
47374;BME280;33123;50.118;10.272;2023-02-11T03:33:48;99374.72;;;3.05;66.35
47374;BME280;33123;50.118;10.272;2023-02-11T03:36:21;99363.34;;;3.06;66.27
47374;BME280;33123;50.118;10.272;2023-02-11T03:38:53;99370.81;;;3.01;66.38
47374;BME280;33123;50.118;10.272;2023-02-11T03:41:23;99366.59;;;3.08;66.25
47374;BME280;33123;50.118;10.272;2023-02-11T03:43:52;99363.38;;;3.14;65.99
47374;BME280;33123;50.118;10.272;2023-02-11T03:46:24;99353.13;;;3.12;66.08
47374;BME280;33123;50.118;10.272;2023-02-11T03:48:55;99323.72;;;2.94;66.23
47374;BME280;33123;50.118;10.272;2023-02-11T03:51:24;99341.03;;;3.03;66.60
47374;BME280;33123;50.118;10.272;2023-02-11T03:53:54;99344.09;;;2.99;67.09
47374;BME280;33123;50.118;10.272;2023-02-11T03:56:26;99333.22;;;3.03;66.69
47374;BME280;33123;50.118;10.272;2023-02-11T03:58:54;99325.31;;;2.87;67.33
47374;BME280;33123;50.118;10.272;2023-02-11T04:01:21;99329.94;;;3.01;66.97
47374;BME280;33123;50.118;10.272;2023-02-11T04:03:47;99321.63;;;2.98;66.96
47374;BME280;33123;50.118;10.272;2023-02-11T04:06:14;99328.44;;;2.90;67.14
47374;BME280;33123;50.118;10.272;2023-02-11T04:08:42;99317.50;;;2.87;67.67
47374;BME280;33123;50.118;10.272;2023-02-11T04:11:09;99329.78;;;2.95;67.08
47374;BME280;33123;50.118;10.272;2023-02-11T04:13:35;99337.50;;;2.78;67.37
47374;BME280;33123;50.118;10.272;2023-02-11T04:16:02;99331.84;;;2.91;67.29
47374;BME280;33123;50.118;10.272;2023-02-11T04:18:28;99332.56;;;3.01;66.66
47374;BME280;33123;50.118;10.272;2023-02-11T04:20:55;99327.97;;;2.95;67.15
47374;BME280;33123;50.118;10.272;2023-02-11T04:23:22;99342.34;;;3.07;66.33
47374;BME280;33123;50.118;10.272;2023-02-11T04:25:50;99280.69;;;2.74;66.37
47374;BME280;33123;50.118;10.272;2023-02-11T04:28:16;99331.13;;;3.07;66.68
47374;BME280;33123;50.118;10.272;2023-02-11T04:30:43;99302.97;;;2.76;66.96
47374;BME280;33123;50.118;10.272;2023-02-11T04:33:09;99301.88;;;2.79;66.83
47374;BME280;33123;50.118;10.272;2023-02-11T04:35:36;99303.03;;;2.84;67.48
47374;BME280;33123;50.118;10.272;2023-02-11T04:38:03;99310.31;;;2.73;67.51
47374;BME280;33123;50.118;10.272;2023-02-11T04:40:29;99310.38;;;2.89;67.39
47374;BME280;33123;50.118;10.272;2023-02-11T04:42:57;99299.13;;;2.88;67.42
47374;BME280;33123;50.118;10.272;2023-02-11T04:45:24;99312.66;;;2.92;66.96
47374;BME280;33123;50.118;10.272;2023-02-11T04:47:50;99310.22;;;2.90;66.53
47374;BME280;33123;50.118;10.272;2023-02-11T04:50:17;99300.25;;;2.78;67.38
47374;BME280;33123;50.118;10.272;2023-02-11T04:52:43;99314.56;;;2.82;67.15
47374;BME280;33123;50.118;10.272;2023-02-11T04:55:11;99316.00;;;2.76;67.35
47374;BME280;33123;50.118;10.272;2023-02-11T04:57:38;99303.97;;;2.41;67.95
47374;BME280;33123;50.118;10.272;2023-02-11T05:00:07;99296.75;;;2.61;68.06
47374;BME280;33123;50.118;10.272;2023-02-11T05:02:35;99280.00;;;2.29;68.01
47374;BME280;33123;50.118;10.272;2023-02-11T05:05:02;99312.41;;;2.43;67.85
47374;BME280;33123;50.118;10.272;2023-02-11T05:07:28;99309.19;;;2.49;68.05
47374;BME280;33123;50.118;10.272;2023-02-11T05:09:55;99316.50;;;2.46;67.73
47374;BME280;33123;50.118;10.272;2023-02-11T05:12:21;99306.03;;;2.37;68.44
47374;BME280;33123;50.118;10.272;2023-02-11T05:14:48;99318.75;;;2.41;68.01
47374;BME280;33123;50.118;10.272;2023-02-11T05:17:16;99317.59;;;2.35;68.28
47374;BME280;33123;50.118;10.272;2023-02-11T05:19:43;99314.25;;;2.25;68.83
47374;BME280;33123;50.118;10.272;2023-02-11T05:22:09;99319.66;;;2.31;68.79
47374;BME280;33123;50.118;10.272;2023-02-11T05:24:36;99299.16;;;2.28;69.41
47374;BME280;33123;50.118;10.272;2023-02-11T05:27:03;99299.53;;;2.33;68.81
47374;BME280;33123;50.118;10.272;2023-02-11T05:29:29;99299.56;;;2.16;68.78
47374;BME280;33123;50.118;10.272;2023-02-11T05:31:57;99301.97;;;2.35;68.66
47374;BME280;33123;50.118;10.272;2023-02-11T05:34:25;99289.84;;;2.18;68.73
47374;BME280;33123;50.118;10.272;2023-02-11T05:36:52;99280.44;;;2.25;69.63
47374;BME280;33123;50.118;10.272;2023-02-11T05:39:19;99276.84;;;2.18;69.91
47374;BME280;33123;50.118;10.272;2023-02-11T05:41:45;99282.06;;;2.26;69.68
47374;BME280;33123;50.118;10.272;2023-02-11T05:44:12;99278.56;;;2.35;69.41
47374;BME280;33123;50.118;10.272;2023-02-11T05:46:38;99293.84;;;2.38;69.08
47374;BME280;33123;50.118;10.272;2023-02-11T05:49:05;99290.44;;;2.37;69.28
47374;BME280;33123;50.118;10.272;2023-02-11T05:51:33;99299.56;;;2.42;69.43
47374;BME280;33123;50.118;10.272;2023-02-11T05:53:59;99308.84;;;2.44;69.19
47374;BME280;33123;50.118;10.272;2023-02-11T05:56:26;99309.88;;;2.51;68.77
47374;BME280;33123;50.118;10.272;2023-02-11T05:58:52;99312.16;;;2.54;68.60
47374;BME280;33123;50.118;10.272;2023-02-11T06:01:19;99324.88;;;2.57;68.94
47374;BME280;33123;50.118;10.272;2023-02-11T06:03:46;99330.59;;;2.61;68.10
47374;BME280;33123;50.118;10.272;2023-02-11T06:06:14;99291.31;;;2.46;68.10
47374;BME280;33123;50.118;10.272;2023-02-11T06:08:42;99326.69;;;2.65;68.32
47374;BME280;33123;50.118;10.272;2023-02-11T06:11:09;99315.16;;;2.68;68.25
47374;BME280;33123;50.118;10.272;2023-02-11T06:13:35;99310.78;;;2.68;68.38
47374;BME280;33123;50.118;10.272;2023-02-11T06:16:02;99301.00;;;2.70;68.34
47374;BME280;33123;50.118;10.272;2023-02-11T06:18:29;99293.72;;;2.74;68.19
47374;BME280;33123;50.118;10.272;2023-02-11T06:20:58;99289.00;;;2.77;68.75
47374;BME280;33123;50.118;10.272;2023-02-11T06:23:24;99301.53;;;2.82;68.40
47374;BME280;33123;50.118;10.272;2023-02-11T06:25:52;99306.28;;;2.86;67.76
47374;BME280;33123;50.118;10.272;2023-02-11T06:28:19;99304.19;;;2.90;68.16
47374;BME280;33123;50.118;10.272;2023-02-11T06:30:45;99300.28;;;2.94;67.82
47374;BME280;33123;50.118;10.272;2023-02-11T06:33:12;99301.59;;;2.98;67.82
47374;BME280;33123;50.118;10.272;2023-02-11T06:35:39;99295.28;;;3.01;67.46
47374;BME280;33123;50.118;10.272;2023-02-11T06:38:05;99285.28;;;2.88;68.38
47374;BME280;33123;50.118;10.272;2023-02-11T06:40:32;99269.31;;;2.83;68.65
47374;BME280;33123;50.118;10.272;2023-02-11T06:43:00;99276.81;;;2.86;68.45
47374;BME280;33123;50.118;10.272;2023-02-11T06:45:26;99280.41;;;2.85;68.57
47374;BME280;33123;50.118;10.272;2023-02-11T06:47:53;99286.91;;;2.81;68.73
47374;BME280;33123;50.118;10.272;2023-02-11T06:50:20;99289.50;;;2.81;69.13
47374;BME280;33123;50.118;10.272;2023-02-11T06:52:46;99292.75;;;2.83;69.49
47374;BME280;33123;50.118;10.272;2023-02-11T06:55:13;99301.59;;;2.90;69.43
47374;BME280;33123;50.118;10.272;2023-02-11T06:57:40;99293.63;;;2.91;69.69
47374;BME280;33123;50.118;10.272;2023-02-11T07:00:09;99284.34;;;2.97;70.03
47374;BME280;33123;50.118;10.272;2023-02-11T07:02:36;99284.66;;;2.94;70.34
47374;BME280;33123;50.118;10.272;2023-02-11T07:05:04;99283.59;;;3.13;69.61
47374;BME280;33123;50.118;10.272;2023-02-11T07:07:31;99284.41;;;3.22;69.38
47374;BME280;33123;50.118;10.272;2023-02-11T07:09:58;99294.53;;;3.25;69.52
47374;BME280;33123;50.118;10.272;2023-02-11T07:12:25;99283.94;;;3.26;69.06
47374;BME280;33123;50.118;10.272;2023-02-11T07:14:51;99285.75;;;3.34;69.24
47374;BME280;33123;50.118;10.272;2023-02-11T07:17:19;99293.72;;;3.32;69.08
47374;BME280;33123;50.118;10.272;2023-02-11T07:19:46;99296.81;;;3.36;69.00
47374;BME280;33123;50.118;10.272;2023-02-11T07:22:12;99307.75;;;3.48;68.60
47374;BME280;33123;50.118;10.272;2023-02-11T07:24:39;99313.13;;;3.54;68.26
47374;BME280;33123;50.118;10.272;2023-02-11T07:27:06;99319.34;;;3.61;68.13
47374;BME280;33123;50.118;10.272;2023-02-11T07:29:32;99314.16;;;3.61;67.86
47374;BME280;33123;50.118;10.272;2023-02-11T07:31:59;99313.00;;;3.64;67.79
47374;BME280;33123;50.118;10.272;2023-02-11T07:34:28;99311.38;;;3.63;67.98
47374;BME280;33123;50.118;10.272;2023-02-11T07:36:55;99321.63;;;3.64;67.97
47374;BME280;33123;50.118;10.272;2023-02-11T07:39:22;99315.13;;;3.77;67.94
47374;BME280;33123;50.118;10.272;2023-02-11T07:41:51;99320.66;;;3.65;68.12
47374;BME280;33123;50.118;10.272;2023-02-11T07:44:18;99323.44;;;3.88;67.71
47374;BME280;33123;50.118;10.272;2023-02-11T07:46:44;99321.66;;;3.97;67.34
47374;BME280;33123;50.118;10.272;2023-02-11T07:49:13;99326.22;;;4.03;67.42
47374;BME280;33123;50.118;10.272;2023-02-11T07:51:41;99332.56;;;3.92;67.67
47374;BME280;33123;50.118;10.272;2023-02-11T07:54:09;99345.28;;;4.04;67.15
47374;BME280;33123;50.118;10.272;2023-02-11T07:56:36;99345.94;;;4.14;66.97
47374;BME280;33123;50.118;10.272;2023-02-11T07:59:03;99344.78;;;4.24;66.50
47374;BME280;33123;50.118;10.272;2023-02-11T08:01:30;99342.19;;;4.24;66.21
47374;BME280;33123;50.118;10.272;2023-02-11T08:03:59;99339.53;;;4.33;66.10
47374;BME280;33123;50.118;10.272;2023-02-11T08:06:28;99333.88;;;4.29;66.26
47374;BME280;33123;50.118;10.272;2023-02-11T08:08:57;99307.63;;;4.22;66.13
47374;BME280;33123;50.118;10.272;2023-02-11T08:11:26;99333.69;;;4.31;66.23
47374;BME280;33123;50.118;10.272;2023-02-11T08:13:54;99332.91;;;4.22;66.21
47374;BME280;33123;50.118;10.272;2023-02-11T08:16:22;99321.31;;;4.24;66.39
47374;BME280;33123;50.118;10.272;2023-02-11T08:18:50;99327.81;;;4.37;66.19
47374;BME280;33123;50.118;10.272;2023-02-11T08:21:18;99343.81;;;4.26;66.70
47374;BME280;33123;50.118;10.272;2023-02-11T08:23:45;99344.13;;;4.39;66.11
47374;BME280;33123;50.118;10.272;2023-02-11T08:26:15;99339.06;;;4.45;65.49
47374;BME280;33123;50.118;10.272;2023-02-11T08:28:43;99340.84;;;4.37;65.76
47374;BME280;33123;50.118;10.272;2023-02-11T08:31:12;99342.00;;;4.42;65.57
47374;BME280;33123;50.118;10.272;2023-02-11T08:33:39;99345.13;;;4.30;66.02
47374;BME280;33123;50.118;10.272;2023-02-11T08:36:10;99349.66;;;4.52;65.37
47374;BME280;33123;50.118;10.272;2023-02-11T08:38:37;99351.63;;;4.42;65.61
47374;BME280;33123;50.118;10.272;2023-02-11T08:41:05;99363.69;;;4.51;65.35
47374;BME280;33123;50.118;10.272;2023-02-11T08:43:33;99360.44;;;4.41;65.45
47374;BME280;33123;50.118;10.272;2023-02-11T08:46:01;99346.25;;;4.27;65.39
47374;BME280;33123;50.118;10.272;2023-02-11T08:48:28;99368.56;;;4.54;65.01
47374;BME280;33123;50.118;10.272;2023-02-11T08:50:55;99366.44;;;4.49;65.56
47374;BME280;33123;50.118;10.272;2023-02-11T08:53:22;99365.94;;;4.54;64.89
47374;BME280;33123;50.118;10.272;2023-02-11T08:55:54;99376.72;;;4.59;64.68
47374;BME280;33123;50.118;10.272;2023-02-11T08:58:21;99373.78;;;4.62;64.83
47374;BME280;33123;50.118;10.272;2023-02-11T09:00:50;99335.97;;;4.50;64.47
47374;BME280;33123;50.118;10.272;2023-02-11T09:03:17;99304.16;;;4.30;64.74
47374;BME280;33123;50.118;10.272;2023-02-11T09:05:45;99377.81;;;4.89;64.26
47374;BME280;33123;50.118;10.272;2023-02-11T09:08:13;99350.56;;;4.75;64.45
47374;BME280;33123;50.118;10.272;2023-02-11T09:10:40;99352.44;;;4.98;63.48
47374;BME280;33123;50.118;10.272;2023-02-11T09:13:07;99363.75;;;5.29;62.93
47374;BME280;33123;50.118;10.272;2023-02-11T09:15:34;99359.25;;;5.46;63.03
47374;BME280;33123;50.118;10.272;2023-02-11T09:18:03;99359.97;;;5.63;62.66
47374;BME280;33123;50.118;10.272;2023-02-11T09:20:30;99360.16;;;5.62;62.28
47374;BME280;33123;50.118;10.272;2023-02-11T09:22:57;99365.03;;;5.96;61.79
47374;BME280;33123;50.118;10.272;2023-02-11T09:25:24;99359.91;;;6.02;60.69
47374;BME280;33123;50.118;10.272;2023-02-11T09:27:51;99358.06;;;6.26;61.07
47374;BME280;33123;50.118;10.272;2023-02-11T09:30:18;99359.81;;;6.48;59.68
47374;BME280;33123;50.118;10.272;2023-02-11T09:32:45;99359.84;;;6.63;59.47
47374;BME280;33123;50.118;10.272;2023-02-11T09:35:13;99360.47;;;6.65;59.66
47374;BME280;33123;50.118;10.272;2023-02-11T09:37:39;99350.53;;;6.75;59.41
47374;BME280;33123;50.118;10.272;2023-02-11T09:40:07;99360.13;;;6.98;58.87
47374;BME280;33123;50.118;10.272;2023-02-11T09:42:42;99364.63;;;7.19;57.79
47374;BME280;33123;50.118;10.272;2023-02-11T09:45:14;99362.47;;;6.93;58.09
47374;BME280;33123;50.118;10.272;2023-02-11T09:47:47;99367.91;;;7.06;57.78
47374;BME280;33123;50.118;10.272;2023-02-11T09:50:18;99358.41;;;6.90;58.29
47374;BME280;33123;50.118;10.272;2023-02-11T09:52:52;99372.06;;;7.00;58.48
47374;BME280;33123;50.118;10.272;2023-02-11T09:55:24;99382.59;;;6.77;59.01
47374;BME280;33123;50.118;10.272;2023-02-11T09:57:52;99392.47;;;6.75;58.78
47374;BME280;33123;50.118;10.272;2023-02-11T10:00:22;99380.34;;;6.59;59.55
47374;BME280;33123;50.118;10.272;2023-02-11T10:03:02;99389.94;;;6.67;59.68
47374;BME280;33123;50.118;10.272;2023-02-11T10:05:53;99389.28;;;6.65;60.08
47374;BME280;33123;50.118;10.272;2023-02-11T10:08:30;99383.44;;;6.63;59.71
47374;BME280;33123;50.118;10.272;2023-02-11T10:11:04;99401.81;;;6.55;60.13
47374;BME280;33123;50.118;10.272;2023-02-11T10:13:43;99388.47;;;6.50;60.13
47374;BME280;33123;50.118;10.272;2023-02-11T10:16:24;99392.88;;;6.34;60.79
47374;BME280;33123;50.118;10.272;2023-02-11T10:19:08;99401.19;;;6.53;60.88
47374;BME280;33123;50.118;10.272;2023-02-11T10:21:47;99393.44;;;6.45;60.83
47374;BME280;33123;50.118;10.272;2023-02-11T10:24:17;99399.63;;;6.44;61.08
47374;BME280;33123;50.118;10.272;2023-02-11T10:26:45;99392.72;;;6.51;60.92
47374;BME280;33123;50.118;10.272;2023-02-11T10:29:17;99394.78;;;6.41;61.82
47374;BME280;33123;50.118;10.272;2023-02-11T10:31:49;99388.53;;;6.42;61.97
47374;BME280;33123;50.118;10.272;2023-02-11T10:34:16;99379.09;;;6.55;61.97
47374;BME280;33123;50.118;10.272;2023-02-11T10:36:44;99385.81;;;6.35;62.14
47374;BME280;33123;50.118;10.272;2023-02-11T10:39:12;99376.91;;;6.59;61.87
47374;BME280;33123;50.118;10.272;2023-02-11T10:41:42;99380.81;;;6.63;61.34
47374;BME280;33123;50.118;10.272;2023-02-11T10:44:19;99376.63;;;6.54;61.53
47374;BME280;33123;50.118;10.272;2023-02-11T10:46:48;99377.72;;;6.45;62.39
47374;BME280;33123;50.118;10.272;2023-02-11T10:49:37;99377.56;;;6.61;61.45
47374;BME280;33123;50.118;10.272;2023-02-11T10:52:20;99382.97;;;6.22;63.11
47374;BME280;33123;50.118;10.272;2023-02-11T10:54:59;99379.34;;;6.60;62.41
47374;BME280;33123;50.118;10.272;2023-02-11T10:57:30;99377.28;;;6.56;62.15
47374;BME280;33123;50.118;10.272;2023-02-11T11:00:00;99383.00;;;6.74;62.12
47374;BME280;33123;50.118;10.272;2023-02-11T11:02:30;99379.91;;;6.71;62.20
47374;BME280;33123;50.118;10.272;2023-02-11T11:05:00;99388.22;;;6.74;62.24
47374;BME280;33123;50.118;10.272;2023-02-11T11:07:31;99386.31;;;6.68;62.56
47374;BME280;33123;50.118;10.272;2023-02-11T11:10:02;99382.38;;;6.72;62.22
47374;BME280;33123;50.118;10.272;2023-02-11T11:12:35;99389.13;;;6.81;61.73
47374;BME280;33123;50.118;10.272;2023-02-11T11:15:17;99383.88;;;6.81;61.88
47374;BME280;33123;50.118;10.272;2023-02-11T11:17:46;99389.03;;;6.75;62.22
47374;BME280;33123;50.118;10.272;2023-02-11T11:20:23;99391.41;;;6.84;62.32
47374;BME280;33123;50.118;10.272;2023-02-11T11:23:06;99399.34;;;6.61;62.77
47374;BME280;33123;50.118;10.272;2023-02-11T11:25:37;99398.09;;;6.72;62.48
47374;BME280;33123;50.118;10.272;2023-02-11T11:28:04;99395.72;;;6.77;61.87
47374;BME280;33123;50.118;10.272;2023-02-11T11:30:38;99358.75;;;6.57;61.94
47374;BME280;33123;50.118;10.272;2023-02-11T11:33:17;99392.66;;;6.74;62.37
47374;BME280;33123;50.118;10.272;2023-02-11T11:35:54;99396.72;;;6.76;62.68
47374;BME280;33123;50.118;10.272;2023-02-11T11:38:24;99396.09;;;6.74;62.54
47374;BME280;33123;50.118;10.272;2023-02-11T11:41:17;99395.19;;;6.67;62.77
47374;BME280;33123;50.118;10.272;2023-02-11T11:43:55;99394.75;;;6.78;62.38
47374;BME280;33123;50.118;10.272;2023-02-11T11:46:23;99394.56;;;6.80;62.71
47374;BME280;33123;50.118;10.272;2023-02-11T11:48:54;99386.88;;;6.78;63.12
47374;BME280;33123;50.118;10.272;2023-02-11T11:51:23;99381.81;;;6.62;63.35
47374;BME280;33123;50.118;10.272;2023-02-11T11:53:56;99375.47;;;6.71;63.29
47374;BME280;33123;50.118;10.272;2023-02-11T11:56:25;99381.09;;;6.68;63.17
47374;BME280;33123;50.118;10.272;2023-02-11T11:58:52;99386.88;;;6.78;63.56
47374;BME280;33123;50.118;10.272;2023-02-11T12:01:28;99378.72;;;6.88;62.82
47374;BME280;33123;50.118;10.272;2023-02-11T12:04:18;99376.94;;;6.88;63.03
47374;BME280;33123;50.118;10.272;2023-02-11T12:06:59;99377.94;;;7.02;62.83
47374;BME280;33123;50.118;10.272;2023-02-11T12:09:32;99366.56;;;6.95;62.84
47374;BME280;33123;50.118;10.272;2023-02-11T12:12:19;99363.41;;;7.00;62.55
47374;BME280;33123;50.118;10.272;2023-02-11T12:14:57;99360.19;;;7.04;62.49
47374;BME280;33123;50.118;10.272;2023-02-11T12:17:40;99362.09;;;7.10;62.45
47374;BME280;33123;50.118;10.272;2023-02-11T12:20:16;99366.56;;;6.95;62.47
47374;BME280;33123;50.118;10.272;2023-02-11T12:22:51;99364.63;;;7.04;62.27
47374;BME280;33123;50.118;10.272;2023-02-11T12:25:25;99353.25;;;6.82;62.35
47374;BME280;33123;50.118;10.272;2023-02-11T12:28:00;99367.88;;;6.76;62.99
47374;BME280;33123;50.118;10.272;2023-02-11T12:30:48;99365.75;;;6.95;63.12
47374;BME280;33123;50.118;10.272;2023-02-11T12:33:28;99362.00;;;7.04;62.82
47374;BME280;33123;50.118;10.272;2023-02-11T12:36:01;99359.94;;;7.14;62.28
47374;BME280;33123;50.118;10.272;2023-02-11T12:38:55;99364.81;;;7.17;62.57
47374;BME280;33123;50.118;10.272;2023-02-11T12:41:39;99366.06;;;7.21;62.52
47374;BME280;33123;50.118;10.272;2023-02-11T12:44:39;99362.19;;;7.17;62.88
47374;BME280;33123;50.118;10.272;2023-02-11T12:47:15;99362.34;;;7.30;62.26
47374;BME280;33123;50.118;10.272;2023-02-11T12:50:02;99353.94;;;7.20;62.05
47374;BME280;33123;50.118;10.272;2023-02-11T12:52:41;99344.91;;;7.23;62.29
47374;BME280;33123;50.118;10.272;2023-02-11T12:55:17;99360.25;;;7.40;61.71
47374;BME280;33123;50.118;10.272;2023-02-11T12:57:47;99355.28;;;7.31;62.21
47374;BME280;33123;50.118;10.272;2023-02-11T13:00:19;99359.44;;;7.40;61.97
47374;BME280;33123;50.118;10.272;2023-02-11T13:02:51;99345.78;;;7.45;61.95
47374;BME280;33123;50.118;10.272;2023-02-11T13:05:24;99348.41;;;7.45;61.66
47374;BME280;33123;50.118;10.272;2023-02-11T13:07:55;99342.91;;;7.39;62.13
47374;BME280;33123;50.118;10.272;2023-02-11T13:10:29;99333.03;;;7.41;62.06
47374;BME280;33123;50.118;10.272;2023-02-11T13:13:01;99333.84;;;7.42;62.26
47374;BME280;33123;50.118;10.272;2023-02-11T13:15:47;99335.66;;;7.41;62.10
47374;BME280;33123;50.118;10.272;2023-02-11T13:18:38;99334.13;;;7.32;62.63
47374;BME280;33123;50.118;10.272;2023-02-11T13:21:35;99326.41;;;7.46;62.41